Haines, AK

11:48 PM AKDT on April 29, 2017 (GMT -0800)
Letnikof Cove | | Change Station

Elev 230 ft 59.17 °N, 135.39 °W | Updated 1 second ago

Clear
Clear
50.0 °F
Feels Like 50.0 °F
N
1.3
Wind Variable Wind from NNW
Gusts 2.5 mph

Today
High -- | Low -- °F
--% Chance of Precip.
Yesterday
High -- | Low -- °F
Precip. -- in
Pressure 29.77 in
Visibility 10.0 miles
Clouds Clear
Dew Point 25 °F
Humidity 37%
Rainfall 0.00 in
Snow Depth Not available.
5:07 AM 8:52 PM
Waxing Crescent, 20% visible
METAR PAHN 300654Z AUTO 31011G21KT 10SM CLR 10/M03 A2976 RMK AO2 SLP081 T01001033 TSNO
Pressure 29.77 in
Visibility 10.0 miles
Clouds Clear
Dew Point 25 °F
Humidity 37%
Rainfall 0.00 in
Snow Depth Not available.
5:07 AM 8:52 PM
Waxing Crescent, 20% visible
METAR PAHN 300654Z AUTO 31011G21KT 10SM CLR 10/M03 A2976 RMK AO2 SLP081 T01001033 TSNO

Get Severe Weather Alerts

Thanks for signing up!

Be on the lookout for a verification email in your inbox.

You'll start receiving the daily forecast at 8 AM.

×

10-Day Weather Forecast

Almanac

Astronomy

Apr. 29, 2017 Rise Set
Actual Time
Civil Twilight
Nautical Twilight
Astronomical Twilight
Moon
Length of Visible Light
Length of Day
Tomorrow will be .
, % of the Moon is Illuminated

Today's Extremes

State Highs State Lows

Community

WunderPhotos

WunderBlog® & News

Nearby

Air Quality

  Air Quality AQ Index Pollutant
Not available.

Snow Depth

Station Depth Elevation

Earthquake Activity

City Distance Mag. Time & Date
Minimum magnitude displayed is 2.5.

Coastal Water Temperatures

Place Temperature

Stations

Nearby Weather Stations

Station Location Temp. Windchill Dew Point Humidity Wind Precip. Elev Updated Type
                   

Watches & Warnings

There are currently no watches in effect.